RYR1LB EBCI-LIRP
Flight info
| Callsign | RYR1LB |
|---|---|
| Flight time | 1h 13m |
| Altitude | 37000 |
| Route | RITAX DCT GTQ DCT DEVDI DCT ODINA DCT SRN DCT MIVKI |
| Aircraft | B738/M-SDE2E3FGHIRWXY/LB1 |
Departure
| Time | 2026-04-29 13:53 |
|---|---|
| Airport | Brussels South Charleroi Airport (EBCI) |
Arrival
| Time | 2026-04-29 15:07 |
|---|---|
| Airport | Pisa International Airport (LIRP) |
| Time | Latitude | Longitude | Altitude | Speed | Heading |
|---|---|---|---|---|---|
| 2026-04-29 13:35 | 50.46924 | 4.47289 | 624 ft | 0 kts | 335° |
| 2026-04-29 13:42 | 50.46911 | 4.47298 | 625 ft | 3 kts | 335° |
| 2026-04-29 13:42 | 50.46892 | 4.47312 | 620 ft | 3 kts | 336° |
| 2026-04-29 13:42 | 50.46875 | 4.47324 | 625 ft | 2 kts | 328° |
| 2026-04-29 13:43 | 50.46868 | 4.47333 | 616 ft | 1 kts | 290° |
| 2026-04-29 13:43 | 50.46866 | 4.47347 | 614 ft | 1 kts | 258° |
| 2026-04-29 13:43 | 50.46869 | 4.47360 | 620 ft | 1 kts | 248° |
| 2026-04-29 13:43 | 50.46872 | 4.47372 | 615 ft | 0 kts | 245° |
| 2026-04-29 13:45 | 50.46859 | 4.47356 | 620 ft | 6 kts | 199° |
| 2026-04-29 13:45 | 50.46811 | 4.47349 | 618 ft | 7 kts | 176° |
| 2026-04-29 13:46 | 50.46765 | 4.47336 | 618 ft | 7 kts | 220° |
| 2026-04-29 13:46 | 50.46743 | 4.47269 | 616 ft | 7 kts | 246° |
| 2026-04-29 13:46 | 50.46715 | 4.47171 | 612 ft | 18 kts | 246° |
| 2026-04-29 13:46 | 50.46656 | 4.46972 | 614 ft | 20 kts | 246° |
| 2026-04-29 13:47 | 50.46599 | 4.46773 | 612 ft | 20 kts | 245° |
| 2026-04-29 13:47 | 50.46543 | 4.46578 | 618 ft | 19 kts | 246° |
| 2026-04-29 13:47 | 50.46488 | 4.46392 | 618 ft | 19 kts | 245° |
| 2026-04-29 13:47 | 50.46433 | 4.46202 | 620 ft | 22 kts | 246° |
| 2026-04-29 13:48 | 50.46367 | 4.45970 | 620 ft | 24 kts | 244° |
| 2026-04-29 13:48 | 50.46299 | 4.45743 | 618 ft | 23 kts | 246° |
| 2026-04-29 13:48 | 50.46235 | 4.45522 | 619 ft | 22 kts | 246° |
| 2026-04-29 13:48 | 50.46174 | 4.45307 | 620 ft | 21 kts | 244° |
| 2026-04-29 13:49 | 50.46111 | 4.45096 | 615 ft | 22 kts | 245° |
| 2026-04-29 13:49 | 50.46048 | 4.44875 | 619 ft | 23 kts | 245° |
| 2026-04-29 13:49 | 50.45980 | 4.44647 | 617 ft | 23 kts | 244° |
| 2026-04-29 13:49 | 50.45909 | 4.44425 | 620 ft | 20 kts | 234° |
| 2026-04-29 13:50 | 50.45826 | 4.44256 | 613 ft | 19 kts | 233° |
| 2026-04-29 13:50 | 50.45737 | 4.44077 | 623 ft | 22 kts | 232° |
| 2026-04-29 13:50 | 50.45652 | 4.43970 | 613 ft | 10 kts | 173° |
| 2026-04-29 13:50 | 50.45618 | 4.44043 | 621 ft | 6 kts | 74° |
| 2026-04-29 13:51 | 50.45626 | 4.44063 | 616 ft | 0 kts | 60° |
| 2026-04-29 13:52 | 50.45663 | 4.44176 | 618 ft | 46 kts | 65° |
| 2026-04-29 13:52 | 50.45922 | 4.45071 | 624 ft | 132 kts | 66° |
| 2026-04-29 13:53 | 50.46364 | 4.46614 | 1200 ft | 164 kts | 65° |
| 2026-04-29 13:53 | 50.46806 | 4.48209 | 2668 ft | 151 kts | 65° |
| 2026-04-29 13:53 | 50.47504 | 4.49541 | 3697 ft | 175 kts | 45° |
| 2026-04-29 13:53 | 50.48564 | 4.50747 | 4158 ft | 202 kts | 41° |
| 2026-04-29 13:54 | 50.49601 | 4.52320 | 4589 ft | 216 kts | 58° |
| 2026-04-29 13:54 | 50.50506 | 4.54266 | 5223 ft | 224 kts | 58° |
| 2026-04-29 13:54 | 50.51445 | 4.56237 | 5988 ft | 229 kts | 57° |
| 2026-04-29 13:54 | 50.52447 | 4.58337 | 6535 ft | 248 kts | 56° |
| 2026-04-29 13:55 | 50.53506 | 4.60516 | 7414 ft | 251 kts | 55° |
| 2026-04-29 13:55 | 50.54432 | 4.62391 | 8304 ft | 252 kts | 55° |
| 2026-04-29 13:55 | 50.55510 | 4.64567 | 9348 ft | 252 kts | 54° |
| 2026-04-29 13:55 | 50.56608 | 4.66791 | 10166 ft | 262 kts | 54° |
| 2026-04-29 13:56 | 50.57720 | 4.69048 | 10918 ft | 271 kts | 54° |
| 2026-04-29 13:56 | 50.58924 | 4.71493 | 11230 ft | 296 kts | 54° |
| 2026-04-29 13:56 | 50.60263 | 4.74214 | 11346 ft | 325 kts | 54° |
| 2026-04-29 13:56 | 50.61674 | 4.77084 | 12021 ft | 334 kts | 53° |
| 2026-04-29 13:57 | 50.63104 | 4.79992 | 12871 ft | 337 kts | 53° |
| 2026-04-29 13:57 | 50.64400 | 4.83007 | 13792 ft | 337 kts | 66° |
| 2026-04-29 13:57 | 50.64978 | 4.86599 | 14480 ft | 344 kts | 86° |
| 2026-04-29 13:57 | 50.64694 | 4.90362 | 15211 ft | 352 kts | 104° |
| 2026-04-29 13:58 | 50.63668 | 4.93932 | 15756 ft | 368 kts | 123° |
| 2026-04-29 13:58 | 50.61915 | 4.96948 | 16381 ft | 378 kts | 132° |
| 2026-04-29 13:58 | 50.60028 | 4.99890 | 16973 ft | 386 kts | 131° |
| 2026-04-29 13:58 | 50.58103 | 5.02875 | 17611 ft | 391 kts | 132° |
| 2026-04-29 13:59 | 50.56154 | 5.05899 | 18289 ft | 396 kts | 132° |
| 2026-04-29 13:59 | 50.54189 | 5.08956 | 18892 ft | 400 kts | 131° |
| 2026-04-29 13:59 | 50.52206 | 5.12048 | 19523 ft | 402 kts | 132° |
| 2026-04-29 13:59 | 50.50213 | 5.15158 | 20162 ft | 404 kts | 131° |
| 2026-04-29 14:00 | 50.48216 | 5.18277 | 20784 ft | 407 kts | 131° |
| 2026-04-29 14:00 | 50.46197 | 5.21429 | 21375 ft | 410 kts | 131° |
| 2026-04-29 14:00 | 50.44193 | 5.24557 | 21943 ft | 413 kts | 132° |
| 2026-04-29 14:00 | 50.42146 | 5.27750 | 22511 ft | 416 kts | 132° |
| 2026-04-29 14:01 | 50.40089 | 5.30955 | 23081 ft | 419 kts | 132° |
| 2026-04-29 14:01 | 50.38012 | 5.34185 | 23622 ft | 422 kts | 132° |
| 2026-04-29 14:01 | 50.35922 | 5.37431 | 24108 ft | 424 kts | 132° |
| 2026-04-29 14:01 | 50.33823 | 5.40686 | 24563 ft | 426 kts | 132° |
| 2026-04-29 14:02 | 50.31713 | 5.43955 | 25026 ft | 428 kts | 131° |
| 2026-04-29 14:02 | 50.29585 | 5.47246 | 25453 ft | 430 kts | 131° |
| 2026-04-29 14:02 | 50.27449 | 5.50546 | 25873 ft | 432 kts | 131° |
| 2026-04-29 14:02 | 50.25304 | 5.53855 | 26297 ft | 434 kts | 131° |
| 2026-04-29 14:03 | 50.23176 | 5.57135 | 26717 ft | 436 kts | 131° |
| 2026-04-29 14:03 | 50.21015 | 5.60460 | 27118 ft | 438 kts | 131° |
| 2026-04-29 14:03 | 50.18836 | 5.63807 | 27525 ft | 440 kts | 131° |
| 2026-04-29 14:03 | 50.16651 | 5.67161 | 27918 ft | 442 kts | 131° |
| 2026-04-29 14:04 | 50.14453 | 5.70530 | 28309 ft | 444 kts | 131° |
| 2026-04-29 14:04 | 50.12246 | 5.73909 | 28682 ft | 446 kts | 131° |
| 2026-04-29 14:04 | 50.10028 | 5.77300 | 29041 ft | 448 kts | 131° |
| 2026-04-29 14:04 | 50.07769 | 5.80658 | 29375 ft | 452 kts | 135° |
| 2026-04-29 14:05 | 50.05109 | 5.83364 | 29693 ft | 462 kts | 147° |
| 2026-04-29 14:05 | 50.02260 | 5.85668 | 30170 ft | 461 kts | 147° |
| 2026-04-29 14:05 | 49.99420 | 5.87968 | 30630 ft | 459 kts | 147° |
| 2026-04-29 14:05 | 49.96815 | 5.90105 | 31022 ft | 457 kts | 147° |
| 2026-04-29 14:06 | 49.94017 | 5.92432 | 31381 ft | 457 kts | 147° |
| 2026-04-29 14:06 | 49.91224 | 5.94778 | 31714 ft | 457 kts | 147° |
| 2026-04-29 14:06 | 49.88434 | 5.97136 | 32075 ft | 456 kts | 147° |
| 2026-04-29 14:06 | 49.85651 | 5.99492 | 32451 ft | 455 kts | 147° |
| 2026-04-29 14:07 | 49.82876 | 6.01839 | 32784 ft | 455 kts | 147° |
| 2026-04-29 14:07 | 49.80091 | 6.04192 | 33110 ft | 456 kts | 147° |
| 2026-04-29 14:07 | 49.77339 | 6.06512 | 33436 ft | 456 kts | 148° |
| 2026-04-29 14:07 | 49.74557 | 6.08855 | 33784 ft | 456 kts | 148° |
| 2026-04-29 14:08 | 49.71770 | 6.11198 | 34108 ft | 456 kts | 148° |
| 2026-04-29 14:08 | 49.68978 | 6.13540 | 34384 ft | 457 kts | 148° |
| 2026-04-29 14:08 | 49.66184 | 6.15882 | 34599 ft | 458 kts | 149° |
| 2026-04-29 14:08 | 49.63381 | 6.18228 | 34781 ft | 460 kts | 149° |
| 2026-04-29 14:09 | 49.60563 | 6.20584 | 34974 ft | 462 kts | 149° |
| 2026-04-29 14:09 | 49.57730 | 6.22950 | 35169 ft | 464 kts | 149° |
| 2026-04-29 14:09 | 49.54887 | 6.25319 | 35363 ft | 466 kts | 149° |
| 2026-04-29 14:09 | 49.52034 | 6.27693 | 35550 ft | 467 kts | 149° |
| 2026-04-29 14:10 | 49.49163 | 6.30079 | 35735 ft | 469 kts | 150° |
| 2026-04-29 14:10 | 49.46292 | 6.32463 | 35926 ft | 470 kts | 150° |
| 2026-04-29 14:10 | 49.43408 | 6.34854 | 36146 ft | 471 kts | 150° |
| 2026-04-29 14:10 | 49.40519 | 6.37245 | 36358 ft | 472 kts | 150° |
| 2026-04-29 14:11 | 49.37624 | 6.39639 | 36543 ft | 474 kts | 151° |
| 2026-04-29 14:11 | 49.34717 | 6.42038 | 36771 ft | 474 kts | 151° |
| 2026-04-29 14:11 | 49.31848 | 6.44404 | 36976 ft | 475 kts | 151° |
| 2026-04-29 14:11 | 49.28904 | 6.46829 | 37141 ft | 474 kts | 151° |
| 2026-04-29 14:12 | 49.23127 | 6.51576 | 37190 ft | 475 kts | 152° |
| 2026-04-29 14:12 | 49.17284 | 6.56366 | 37178 ft | 478 kts | 152° |
| 2026-04-29 14:13 | 49.11394 | 6.61182 | 37176 ft | 481 kts | 152° |
| 2026-04-29 14:13 | 49.05476 | 6.66008 | 37171 ft | 482 kts | 152° |
| 2026-04-29 14:14 | 48.99559 | 6.70821 | 37171 ft | 483 kts | 152° |
| 2026-04-29 14:14 | 48.93511 | 6.75283 | 37167 ft | 482 kts | 156° |
| 2026-04-29 14:15 | 48.87371 | 6.79384 | 37162 ft | 482 kts | 157° |
| 2026-04-29 14:15 | 48.81226 | 6.83477 | 37157 ft | 481 kts | 157° |
| 2026-04-29 14:16 | 48.75108 | 6.87604 | 37160 ft | 481 kts | 157° |
| 2026-04-29 14:16 | 48.69000 | 6.91742 | 37141 ft | 481 kts | 157° |
| 2026-04-29 14:17 | 48.62935 | 6.95845 | 37147 ft | 481 kts | 157° |
| 2026-04-29 14:17 | 48.56832 | 6.99960 | 37147 ft | 480 kts | 158° |
| 2026-04-29 14:18 | 48.50726 | 7.04065 | 37146 ft | 480 kts | 158° |
| 2026-04-29 14:18 | 48.44619 | 7.08159 | 37134 ft | 480 kts | 158° |
| 2026-04-29 14:19 | 48.38509 | 7.12243 | 37145 ft | 480 kts | 158° |
| 2026-04-29 14:19 | 48.32398 | 7.16319 | 37142 ft | 481 kts | 158° |
| 2026-04-29 14:20 | 48.26271 | 7.20393 | 37135 ft | 483 kts | 159° |
| 2026-04-29 14:20 | 48.20117 | 7.24475 | 37134 ft | 484 kts | 159° |
| 2026-04-29 14:21 | 48.13953 | 7.28554 | 37121 ft | 485 kts | 159° |
| 2026-04-29 14:21 | 48.07779 | 7.32629 | 37134 ft | 485 kts | 159° |
| 2026-04-29 14:22 | 48.01640 | 7.36668 | 37131 ft | 485 kts | 159° |
| 2026-04-29 14:22 | 47.95465 | 7.40722 | 37125 ft | 485 kts | 159° |
| 2026-04-29 14:23 | 47.89319 | 7.44747 | 37121 ft | 485 kts | 159° |
| 2026-04-29 14:23 | 47.83143 | 7.48780 | 37103 ft | 484 kts | 159° |
| 2026-04-29 14:24 | 47.76971 | 7.52802 | 37108 ft | 484 kts | 159° |
| 2026-04-29 14:24 | 47.70817 | 7.56869 | 37105 ft | 484 kts | 158° |
| 2026-04-29 14:25 | 47.64735 | 7.61165 | 37103 ft | 484 kts | 157° |
| 2026-04-29 14:25 | 47.58675 | 7.65489 | 37094 ft | 483 kts | 157° |
| 2026-04-29 14:26 | 47.53639 | 7.69049 | 37099 ft | 482 kts | 157° |
| 2026-04-29 14:26 | 47.47575 | 7.73300 | 37101 ft | 482 kts | 158° |
| 2026-04-29 14:27 | 47.41522 | 7.77522 | 37103 ft | 481 kts | 158° |
| 2026-04-29 14:28 | 47.32434 | 7.83843 | 37103 ft | 481 kts | 158° |
| 2026-04-29 14:28 | 47.26377 | 7.88044 | 37114 ft | 481 kts | 158° |
| 2026-04-29 14:29 | 47.20321 | 7.92234 | 37123 ft | 481 kts | 158° |
| 2026-04-29 14:29 | 47.14250 | 7.96423 | 37105 ft | 482 kts | 158° |
| 2026-04-29 14:30 | 47.08179 | 8.00603 | 37112 ft | 483 kts | 158° |
| 2026-04-29 14:30 | 47.02127 | 8.04760 | 37110 ft | 483 kts | 158° |
| 2026-04-29 14:31 | 46.96034 | 8.08933 | 37136 ft | 483 kts | 158° |
| 2026-04-29 14:31 | 46.89918 | 8.13110 | 37127 ft | 483 kts | 158° |
| 2026-04-29 14:32 | 46.83849 | 8.17245 | 37101 ft | 483 kts | 158° |
| 2026-04-29 14:32 | 46.77733 | 8.21404 | 37063 ft | 483 kts | 158° |
| 2026-04-29 14:33 | 46.71630 | 8.25541 | 37107 ft | 484 kts | 158° |
| 2026-04-29 14:33 | 46.65525 | 8.29669 | 37094 ft | 487 kts | 158° |
| 2026-04-29 14:34 | 46.59392 | 8.33808 | 37096 ft | 488 kts | 158° |
| 2026-04-29 14:34 | 46.53226 | 8.37959 | 37124 ft | 486 kts | 158° |
| 2026-04-29 14:35 | 46.47070 | 8.42092 | 37089 ft | 485 kts | 158° |
| 2026-04-29 14:35 | 46.40950 | 8.46191 | 37102 ft | 484 kts | 158° |
| 2026-04-29 14:36 | 46.34858 | 8.50259 | 37092 ft | 484 kts | 158° |
| 2026-04-29 14:36 | 46.28740 | 8.54334 | 37096 ft | 483 kts | 158° |
| 2026-04-29 14:37 | 46.22623 | 8.58402 | 37104 ft | 482 kts | 158° |
| 2026-04-29 14:37 | 46.16558 | 8.62427 | 37100 ft | 481 kts | 158° |
| 2026-04-29 14:38 | 46.10462 | 8.66463 | 37099 ft | 481 kts | 157° |
| 2026-04-29 14:38 | 46.04509 | 8.70936 | 37065 ft | 482 kts | 153° |
| 2026-04-29 14:39 | 45.98750 | 8.75564 | 37073 ft | 482 kts | 153° |
| 2026-04-29 14:39 | 45.92917 | 8.80198 | 37075 ft | 482 kts | 154° |
| 2026-04-29 14:40 | 45.87030 | 8.84803 | 37078 ft | 481 kts | 154° |
| 2026-04-29 14:40 | 45.81132 | 8.89388 | 37071 ft | 481 kts | 154° |
| 2026-04-29 14:41 | 45.75239 | 8.93962 | 37073 ft | 481 kts | 154° |
| 2026-04-29 14:41 | 45.69381 | 8.98502 | 37084 ft | 481 kts | 154° |
| 2026-04-29 14:42 | 45.63483 | 9.03057 | 37071 ft | 480 kts | 154° |
| 2026-04-29 14:42 | 45.57574 | 9.07542 | 37047 ft | 480 kts | 155° |
| 2026-04-29 14:43 | 45.51707 | 9.11959 | 37046 ft | 479 kts | 155° |
| 2026-04-29 14:43 | 45.45837 | 9.16378 | 37018 ft | 466 kts | 155° |
| 2026-04-29 14:43 | 45.43013 | 9.18507 | 37028 ft | 451 kts | 155° |
| 2026-04-29 14:44 | 45.40278 | 9.20568 | 37022 ft | 438 kts | 155° |
| 2026-04-29 14:44 | 45.37617 | 9.22570 | 37028 ft | 424 kts | 155° |
| 2026-04-29 14:44 | 45.35074 | 9.24479 | 37023 ft | 412 kts | 155° |
| 2026-04-29 14:44 | 45.32571 | 9.26356 | 37026 ft | 399 kts | 155° |
| 2026-04-29 14:45 | 45.30121 | 9.28188 | 37056 ft | 398 kts | 155° |
| 2026-04-29 14:45 | 45.25126 | 9.31908 | 37067 ft | 411 kts | 155° |
| 2026-04-29 14:46 | 45.19992 | 9.35731 | 37063 ft | 422 kts | 155° |
| 2026-04-29 14:46 | 45.14767 | 9.39624 | 37037 ft | 421 kts | 155° |
| 2026-04-29 14:47 | 45.09671 | 9.43417 | 37029 ft | 411 kts | 155° |
| 2026-04-29 14:47 | 45.04580 | 9.47191 | 37058 ft | 417 kts | 155° |
| 2026-04-29 14:48 | 44.99359 | 9.51049 | 37061 ft | 430 kts | 155° |
| 2026-04-29 14:48 | 44.93970 | 9.55025 | 37064 ft | 443 kts | 155° |
| 2026-04-29 14:49 | 44.88473 | 9.59076 | 37051 ft | 449 kts | 155° |
| 2026-04-29 14:49 | 44.85742 | 9.61091 | 36987 ft | 436 kts | 155° |
| 2026-04-29 14:49 | 44.83080 | 9.63053 | 36784 ft | 428 kts | 155° |
| 2026-04-29 14:49 | 44.80452 | 9.64984 | 36406 ft | 425 kts | 155° |
| 2026-04-29 14:50 | 44.77813 | 9.66918 | 35696 ft | 431 kts | 155° |
| 2026-04-29 14:50 | 44.75109 | 9.68893 | 34791 ft | 442 kts | 155° |
| 2026-04-29 14:50 | 44.72374 | 9.70893 | 34436 ft | 446 kts | 155° |
| 2026-04-29 14:50 | 44.69607 | 9.72911 | 34110 ft | 462 kts | 155° |
| 2026-04-29 14:51 | 44.66701 | 9.75030 | 33726 ft | 477 kts | 155° |
| 2026-04-29 14:51 | 44.63723 | 9.77201 | 33312 ft | 482 kts | 155° |
| 2026-04-29 14:51 | 44.60730 | 9.79385 | 32909 ft | 483 kts | 154° |
| 2026-04-29 14:51 | 44.57754 | 9.81555 | 32508 ft | 482 kts | 154° |
| 2026-04-29 14:52 | 44.54771 | 9.83726 | 32104 ft | 481 kts | 154° |
| 2026-04-29 14:52 | 44.51836 | 9.85858 | 31722 ft | 480 kts | 154° |
| 2026-04-29 14:52 | 44.48868 | 9.88012 | 31337 ft | 478 kts | 154° |
| 2026-04-29 14:52 | 44.45919 | 9.90148 | 30911 ft | 478 kts | 154° |
| 2026-04-29 14:53 | 44.42942 | 9.92301 | 30559 ft | 482 kts | 154° |
| 2026-04-29 14:53 | 44.39943 | 9.94467 | 30204 ft | 486 kts | 154° |
| 2026-04-29 14:53 | 44.36977 | 9.96608 | 29786 ft | 486 kts | 154° |
| 2026-04-29 14:53 | 44.33968 | 9.98779 | 29369 ft | 484 kts | 154° |
| 2026-04-29 14:54 | 44.30976 | 10.00935 | 28963 ft | 483 kts | 154° |
| 2026-04-29 14:54 | 44.27973 | 10.03096 | 28543 ft | 480 kts | 154° |
| 2026-04-29 14:54 | 44.25091 | 10.05170 | 27998 ft | 462 kts | 154° |
| 2026-04-29 14:54 | 44.22266 | 10.07228 | 27011 ft | 456 kts | 152° |
| 2026-04-29 14:55 | 44.19669 | 10.09755 | 26000 ft | 453 kts | 140° |
| 2026-04-29 14:55 | 44.17490 | 10.12847 | 24997 ft | 451 kts | 132° |
| 2026-04-29 14:55 | 44.15415 | 10.16138 | 23864 ft | 451 kts | 132° |
| 2026-04-29 14:55 | 44.13349 | 10.19439 | 22592 ft | 449 kts | 131° |
| 2026-04-29 14:56 | 44.11300 | 10.22721 | 21366 ft | 447 kts | 131° |
| 2026-04-29 14:56 | 44.09268 | 10.25986 | 20172 ft | 443 kts | 131° |
| 2026-04-29 14:56 | 44.07287 | 10.29170 | 19052 ft | 439 kts | 131° |
| 2026-04-29 14:56 | 44.05289 | 10.32378 | 17874 ft | 435 kts | 131° |
| 2026-04-29 14:57 | 44.03361 | 10.35590 | 16626 ft | 430 kts | 126° |
| 2026-04-29 14:57 | 44.01945 | 10.39224 | 15458 ft | 426 kts | 113° |
| 2026-04-29 14:57 | 44.00892 | 10.43012 | 14327 ft | 421 kts | 111° |
| 2026-04-29 14:57 | 43.99934 | 10.46834 | 13119 ft | 416 kts | 107° |
| 2026-04-29 14:58 | 43.99547 | 10.50781 | 11853 ft | 412 kts | 86° |
| 2026-04-29 14:58 | 44.00285 | 10.54559 | 10872 ft | 401 kts | 60° |
| 2026-04-29 14:58 | 44.01896 | 10.57549 | 10673 ft | 372 kts | 50° |
| 2026-04-29 14:58 | 44.03132 | 10.60559 | 10425 ft | 350 kts | 74° |
| 2026-04-29 14:59 | 44.03264 | 10.63781 | 10224 ft | 330 kts | 102° |
| 2026-04-29 14:59 | 44.02351 | 10.66566 | 9993 ft | 310 kts | 131° |
| 2026-04-29 14:59 | 44.00673 | 10.68331 | 9483 ft | 301 kts | 161° |
| 2026-04-29 14:59 | 43.98653 | 10.68654 | 8974 ft | 292 kts | 192° |
| 2026-04-29 15:00 | 43.96745 | 10.67826 | 8501 ft | 284 kts | 203° |
| 2026-04-29 15:00 | 43.94922 | 10.66775 | 7994 ft | 281 kts | 204° |
| 2026-04-29 15:00 | 43.93155 | 10.65705 | 7477 ft | 280 kts | 204° |
| 2026-04-29 15:00 | 43.91374 | 10.64606 | 6926 ft | 279 kts | 204° |
| 2026-04-29 15:01 | 43.89584 | 10.63475 | 6294 ft | 283 kts | 205° |
| 2026-04-29 15:01 | 43.87921 | 10.62010 | 5686 ft | 284 kts | 218° |
| 2026-04-29 15:01 | 43.86440 | 10.60218 | 5132 ft | 280 kts | 222° |
| 2026-04-29 15:01 | 43.85089 | 10.58398 | 4593 ft | 265 kts | 223° |
| 2026-04-29 15:02 | 43.83819 | 10.56656 | 4244 ft | 249 kts | 223° |
| 2026-04-29 15:02 | 43.82618 | 10.55007 | 3848 ft | 238 kts | 223° |
| 2026-04-29 15:02 | 43.81471 | 10.53427 | 3496 ft | 224 kts | 224° |
| 2026-04-29 15:02 | 43.80401 | 10.51949 | 3139 ft | 211 kts | 224° |
| 2026-04-29 15:03 | 43.79335 | 10.50680 | 2925 ft | 194 kts | 216° |
| 2026-04-29 15:03 | 43.78314 | 10.49633 | 2829 ft | 169 kts | 216° |
| 2026-04-29 15:03 | 43.77434 | 10.48733 | 2649 ft | 150 kts | 216° |
| 2026-04-29 15:03 | 43.76611 | 10.47909 | 2428 ft | 144 kts | 216° |
| 2026-04-29 15:04 | 43.75748 | 10.47063 | 1879 ft | 157 kts | 216° |
| 2026-04-29 15:04 | 43.74841 | 10.46188 | 1512 ft | 157 kts | 216° |
| 2026-04-29 15:04 | 43.74015 | 10.45343 | 1382 ft | 138 kts | 223° |
| 2026-04-29 15:04 | 43.73282 | 10.44474 | 1160 ft | 145 kts | 219° |
| 2026-04-29 15:05 | 43.72458 | 10.43639 | 907 ft | 146 kts | 217° |
| 2026-04-29 15:05 | 43.71638 | 10.42831 | 687 ft | 143 kts | 219° |
| 2026-04-29 15:05 | 43.70865 | 10.41997 | 462 ft | 143 kts | 221° |
| 2026-04-29 15:05 | 43.70075 | 10.41171 | 279 ft | 141 kts | 217° |
| 2026-04-29 15:06 | 43.69274 | 10.40355 | 65 ft | 143 kts | 218° |
| 2026-04-29 15:06 | 43.68516 | 10.39566 | 18 ft | 121 kts | 217° |
| 2026-04-29 15:06 | 43.68016 | 10.39051 | 15 ft | 73 kts | 217° |
| 2026-04-29 15:06 | 43.67635 | 10.38660 | 18 ft | 59 kts | 217° |
| 2026-04-29 15:07 | 43.67555 | 10.38464 | 17 ft | 17 kts | 301° |
| 2026-04-29 15:07 | 43.67649 | 10.38296 | 12 ft | 28 kts | 307° |
| 2026-04-29 15:07 | 43.67782 | 10.38129 | 14 ft | 26 kts | 359° |
| 2026-04-29 15:07 | 43.67937 | 10.38241 | 14 ft | 25 kts | 39° |
| 2026-04-29 15:08 | 43.68069 | 10.38377 | 15 ft | 23 kts | 36° |
| 2026-04-29 15:08 | 43.68195 | 10.38508 | 14 ft | 22 kts | 38° |
| 2026-04-29 15:08 | 43.68317 | 10.38633 | 14 ft | 22 kts | 37° |
| 2026-04-29 15:08 | 43.68349 | 10.38733 | 14 ft | 12 kts | 126° |
| 2026-04-29 15:09 | 43.68254 | 10.38910 | 15 ft | 25 kts | 118° |
| 2026-04-29 15:09 | 43.68306 | 10.39023 | 16 ft | 28 kts | 37° |
| 2026-04-29 15:09 | 43.68518 | 10.39243 | 17 ft | 39 kts | 36° |
| 2026-04-29 15:09 | 43.68732 | 10.39463 | 17 ft | 39 kts | 37° |
| 2026-04-29 15:10 | 43.68946 | 10.39682 | 18 ft | 37 kts | 37° |
| 2026-04-29 15:10 | 43.69144 | 10.39888 | 22 ft | 34 kts | 35° |
| 2026-04-29 15:10 | 43.69359 | 10.39896 | 15 ft | 21 kts | 352° |
| 2026-04-29 15:10 | 43.69503 | 10.39911 | 15 ft | 21 kts | 10° |
| 2026-04-29 15:11 | 43.69643 | 10.39944 | 14 ft | 20 kts | 12° |
| 2026-04-29 15:11 | 43.69691 | 10.40009 | 14 ft | 2 kts | 74° |
| 2026-04-29 15:11 | 43.69733 | 10.40028 | 14 ft | 13 kts | 8° |
| 2026-04-29 15:11 | 43.69749 | 10.40032 | 14 ft | 0 kts | 9° |